createdAt,value
2018-05-19T00:02:15.097Z,4.87
2018-05-19T00:04:42.608Z,5.23
2018-05-19T00:07:10.556Z,5.03
2018-05-19T00:09:38.153Z,5.10
2018-05-19T00:12:05.738Z,4.67
2018-05-19T00:14:33.257Z,5.03
2018-05-19T00:17:00.816Z,4.73
2018-05-19T00:19:28.320Z,5.40
2018-05-19T00:21:55.878Z,5.20
2018-05-19T00:24:23.388Z,5.37
2018-05-19T00:26:51.335Z,5.63
2018-05-19T00:29:18.837Z,5.17
2018-05-19T00:31:46.373Z,5.30
2018-05-19T00:34:13.971Z,5.50
2018-05-19T00:36:41.512Z,6.67
2018-05-19T00:39:09.013Z,5.90
2018-05-19T00:41:36.546Z,5.60
2018-05-19T00:44:04.073Z,5.73
2018-05-19T00:46:31.634Z,5.17
2018-05-19T00:48:59.147Z,5.03
2018-05-19T00:51:26.699Z,5.27
2018-05-19T00:53:54.243Z,5.20
2018-05-19T00:56:21.780Z,5.60
2018-05-19T00:58:49.285Z,5.57
2018-05-19T01:01:16.978Z,5.77
2018-05-19T01:03:44.485Z,5.93
2018-05-19T01:06:12.036Z,4.00
2018-05-19T01:08:39.561Z,3.87
2018-05-19T01:11:07.109Z,4.17
2018-05-19T01:13:34.615Z,4.00
2018-05-19T01:16:02.145Z,4.07
2018-05-19T01:18:29.655Z,5.00
2018-05-19T01:20:57.205Z,5.80
2018-05-19T01:23:24.701Z,5.13
2018-05-19T01:25:52.228Z,5.17
2018-05-19T01:28:19.769Z,5.40
2018-05-19T01:30:47.262Z,5.57
2018-05-19T01:33:14.907Z,5.70
2018-05-19T01:35:42.407Z,7.27
2018-05-19T01:38:09.925Z,5.93
2018-05-19T01:40:37.430Z,5.63
2018-05-19T01:43:04.953Z,5.60
2018-05-19T01:45:32.449Z,5.87
2018-05-19T01:48:00.391Z,5.93
2018-05-19T01:50:27.898Z,6.20
2018-05-19T01:52:55.422Z,5.57
2018-05-19T01:55:23.324Z,6.23
2018-05-19T01:57:50.850Z,5.67
2018-05-19T02:00:18.344Z,5.37
2018-05-19T02:02:45.870Z,5.47
2018-05-19T02:05:13.373Z,6.00
2018-05-19T02:07:40.905Z,4.83
2018-05-19T02:10:08.399Z,4.83
2018-05-19T02:12:35.920Z,5.23
2018-05-19T02:15:03.414Z,5.53
2018-05-19T02:17:30.962Z,5.07
2018-05-19T02:19:58.462Z,5.60
2018-05-19T02:22:25.996Z,5.67
2018-05-19T02:24:53.497Z,5.73
2018-05-19T02:27:21.036Z,5.70
2018-05-19T02:29:48.537Z,5.57
2018-05-19T02:32:16.079Z,6.07
2018-05-19T02:34:43.581Z,6.40
2018-05-19T02:37:11.514Z,6.63
2018-05-19T02:39:39.444Z,5.93
2018-05-19T02:42:06.969Z,6.63
2018-05-19T02:44:34.533Z,6.17
2018-05-19T02:47:02.057Z,6.07
2018-05-19T02:49:29.661Z,5.30
2018-05-19T02:51:57.183Z,5.90
2018-05-19T02:54:25.084Z,6.03
2018-05-19T02:56:52.632Z,5.17
2018-05-19T02:59:20.294Z,5.93
2018-05-19T03:01:47.795Z,5.90
2018-05-19T03:04:15.324Z,5.60
2018-05-19T03:06:42.825Z,5.83
2018-05-19T03:09:10.349Z,5.77
2018-05-19T03:11:37.853Z,6.23
2018-05-19T03:14:05.377Z,5.70
2018-05-19T03:16:32.881Z,5.63
2018-05-19T03:19:00.412Z,6.47
2018-05-19T03:21:28.416Z,5.87
2018-05-19T03:23:55.961Z,7.03
2018-05-19T03:26:23.466Z,5.87
2018-05-19T03:28:50.998Z,6.07
2018-05-19T03:31:18.492Z,6.03
2018-05-19T03:33:46.050Z,5.67
2018-05-19T03:36:13.564Z,6.60
2018-05-19T03:38:41.100Z,5.87
2018-05-19T03:41:08.609Z,6.57
2018-05-19T03:43:36.311Z,5.83
2018-05-19T03:46:03.869Z,6.73
2018-05-19T03:48:31.389Z,5.43
2018-05-19T03:50:58.889Z,5.40
2018-05-19T03:53:26.410Z,4.70
2018-05-19T03:55:53.909Z,5.27
2018-05-19T03:58:33.261Z,6.67
2018-05-19T04:01:12.389Z,5.47
2018-05-19T04:03:39.924Z,5.40
2018-05-19T04:06:07.433Z,5.80
2018-05-19T04:08:35.025Z,5.27
2018-05-19T04:11:02.657Z,5.77
2018-05-19T04:13:30.202Z,6.40
2018-05-19T04:15:58.605Z,5.67
2018-05-19T04:18:26.140Z,5.27
2018-05-19T04:20:53.637Z,5.67
2018-05-19T04:23:21.170Z,5.90
2018-05-19T04:25:48.678Z,5.50
2018-05-19T04:28:16.213Z,5.80
2018-05-19T04:30:43.709Z,5.40
2018-05-19T04:33:11.210Z,5.57
2018-05-19T04:35:38.752Z,5.67
2018-05-19T04:38:06.245Z,6.20
2018-05-19T04:40:33.781Z,5.80
2018-05-19T04:43:01.282Z,5.70
2018-05-19T04:45:29.546Z,6.10
2018-05-19T04:47:57.446Z,4.87
2018-05-19T04:50:24.968Z,5.27
2018-05-19T04:52:52.469Z,4.70
2018-05-19T04:55:20.109Z,6.13
2018-05-19T04:57:47.991Z,5.37
2018-05-19T05:00:15.517Z,6.30
2018-05-19T05:02:43.011Z,5.77
2018-05-19T05:05:10.733Z,5.33
2018-05-19T05:07:38.238Z,5.73
2018-05-19T05:10:05.779Z,5.87
2018-05-19T05:12:33.290Z,5.53
2018-05-19T05:15:01.236Z,5.90
2018-05-19T05:17:28.741Z,5.33
2018-05-19T05:19:56.278Z,6.83
2018-05-19T05:22:23.797Z,6.70
2018-05-19T05:24:51.316Z,6.53
2018-05-19T05:27:19.057Z,8.10
2018-05-19T05:29:46.592Z,6.73
2018-05-19T05:32:14.591Z,6.30
2018-05-19T05:34:42.116Z,7.67
2018-05-19T05:37:10.016Z,7.47
2018-05-19T05:39:37.541Z,6.70
2018-05-19T05:42:05.226Z,7.87
2018-05-19T05:44:32.874Z,7.53
2018-05-19T05:47:00.382Z,7.70
2018-05-19T05:49:27.921Z,8.63
2018-05-19T05:51:55.446Z,9.20
2018-05-19T05:54:22.992Z,8.47
2018-05-19T05:56:50.502Z,8.63
2018-05-19T05:59:18.224Z,8.35
2018-05-19T06:01:45.724Z,8.27
2018-05-19T06:04:13.428Z,8.32
2018-05-19T06:06:40.942Z,8.32
2018-05-19T06:09:08.457Z,8.05
2018-05-19T06:11:35.985Z,8.10
2018-05-19T06:14:03.489Z,8.02
2018-05-19T06:16:31.034Z,7.65
2018-05-19T06:18:58.616Z,7.87
2018-05-19T06:21:26.102Z,7.62
2018-05-19T06:23:53.788Z,8.00
2018-05-19T06:26:21.446Z,7.25
2018-05-19T06:28:48.950Z,6.93
2018-05-19T06:31:16.505Z,7.85
2018-05-19T06:33:44.216Z,7.80
2018-05-19T06:36:11.850Z,7.90
2018-05-19T06:38:39.354Z,7.55
2018-05-19T06:41:06.987Z,7.47
2018-05-19T06:43:34.499Z,7.80
2018-05-19T06:46:02.421Z,7.37
2018-05-19T06:48:29.927Z,8.45
2018-05-19T06:50:57.470Z,8.25
2018-05-19T06:53:25.022Z,6.78
2018-05-19T06:55:52.721Z,7.62
2018-05-19T06:58:20.216Z,7.07
2018-05-19T07:00:47.777Z,7.57
2018-05-19T07:03:15.306Z,7.53
2018-05-19T07:05:42.853Z,7.65
2018-05-19T07:08:10.433Z,8.48
2018-05-19T07:10:37.974Z,6.80
2018-05-19T07:13:05.505Z,7.55
2018-05-19T07:15:33.063Z,7.95
2018-05-19T07:18:00.620Z,6.75
2018-05-19T07:20:28.158Z,7.75
2018-05-19T07:22:56.088Z,7.07
2018-05-19T07:25:23.624Z,7.30
2018-05-19T07:27:51.125Z,7.43
2018-05-19T07:30:19.082Z,7.72
2018-05-19T07:32:46.604Z,7.12
2018-05-19T07:35:14.149Z,7.62
2018-05-19T07:37:41.649Z,6.57
2018-05-19T07:40:09.149Z,7.05
2018-05-19T07:42:36.681Z,7.82
2018-05-19T07:45:04.578Z,6.97
2018-05-19T07:47:32.520Z,6.78
2018-05-19T07:50:00.039Z,7.80
2018-05-19T07:52:27.585Z,6.97
2018-05-19T07:54:55.097Z,8.73
2018-05-19T07:57:22.630Z,6.95
2018-05-19T07:59:50.636Z,7.32
2018-05-19T08:02:18.173Z,8.70
2018-05-19T08:04:45.742Z,7.37
2018-05-19T08:07:13.280Z,6.90
2018-05-19T08:09:41.064Z,7.68
2018-05-19T08:12:08.620Z,7.70
2018-05-19T08:14:36.141Z,8.18
2018-05-19T08:17:03.674Z,8.35
2018-05-19T08:19:31.393Z,7.30
2018-05-19T08:21:58.951Z,8.00
2018-05-19T08:24:26.469Z,8.52
2018-05-19T08:26:54.393Z,6.65
2018-05-19T08:29:21.904Z,8.07
2018-05-19T08:31:49.441Z,8.93
2018-05-19T08:34:17.339Z,8.13
2018-05-19T08:36:44.889Z,7.68
2018-05-19T08:39:12.555Z,7.20
2018-05-19T08:41:40.205Z,7.35
2018-05-19T08:44:07.857Z,8.15
2018-05-19T08:46:35.396Z,7.35
2018-05-19T08:49:03.309Z,8.57
2018-05-19T08:51:30.841Z,7.22
2018-05-19T08:53:58.357Z,8.25
2018-05-19T08:56:25.889Z,7.37
2018-05-19T08:58:53.418Z,7.03
2018-05-19T09:01:20.953Z,7.47
2018-05-19T09:03:48.461Z,6.00
2018-05-19T09:06:16.001Z,7.75
2018-05-19T09:08:43.497Z,7.20
2018-05-19T09:11:11.429Z,7.18
2018-05-19T09:13:38.925Z,6.87
2018-05-19T09:16:06.610Z,7.15
2018-05-19T09:18:34.141Z,6.80
2018-05-19T09:21:02.045Z,7.72
2018-05-19T09:23:29.586Z,7.20
2018-05-19T09:25:57.097Z,7.72
2018-05-19T09:28:24.623Z,7.70
2018-05-19T09:30:52.143Z,7.75
2018-05-19T09:33:19.873Z,7.85
2018-05-19T09:35:47.434Z,8.15
2018-05-19T09:38:14.957Z,8.48
2018-05-19T09:40:42.480Z,9.68
2018-05-19T09:43:10.037Z,9.10
2018-05-19T09:45:37.697Z,8.60
2018-05-19T09:48:05.251Z,8.50
2018-05-19T09:50:33.024Z,7.70
2018-05-19T09:53:00.570Z,9.95
2018-05-19T09:55:28.108Z,8.82
2018-05-19T09:57:55.936Z,8.48
2018-05-19T10:00:23.449Z,8.82
2018-05-19T10:02:50.988Z,8.48
2018-05-19T10:05:18.571Z,7.78
2018-05-19T10:07:46.090Z,9.00
2018-05-19T10:10:13.994Z,9.43
2018-05-19T10:12:41.565Z,8.98
2018-05-19T10:15:09.077Z,8.10
2018-05-19T10:17:36.618Z,9.15
2018-05-19T10:20:04.122Z,8.02
2018-05-19T10:22:31.754Z,8.10
2018-05-19T10:24:59.269Z,7.60
2018-05-19T10:27:26.811Z,6.70
2018-05-19T10:29:54.304Z,3.65
2018-05-19T10:32:21.831Z,3.97
2018-05-19T10:34:49.429Z,3.65
2018-05-19T10:37:17.093Z,6.05
2018-05-19T10:39:44.596Z,6.47
2018-05-19T10:42:12.134Z,6.55
2018-05-19T10:44:39.657Z,6.55
2018-05-19T10:47:07.158Z,5.70
2018-05-19T10:49:41.340Z,5.85
2018-05-19T10:52:08.966Z,5.28
2018-05-19T10:54:36.652Z,4.82
2018-05-19T10:57:04.525Z,4.05
2018-05-19T10:59:32.179Z,6.15
2018-05-19T11:01:59.706Z,6.87
2018-05-19T11:04:27.892Z,6.72
2018-05-19T11:06:55.413Z,7.25
2018-05-19T11:09:22.963Z,7.82
2018-05-19T11:11:50.672Z,7.43
2018-05-19T11:14:18.201Z,7.78
2018-05-19T11:16:46.205Z,7.47
2018-05-19T11:19:13.749Z,6.37
2018-05-19T11:21:41.249Z,7.53
2018-05-19T11:24:08.798Z,8.10
2018-05-19T11:26:36.302Z,6.90
2018-05-19T11:29:03.825Z,6.40
2018-05-19T11:31:31.345Z,5.85
2018-05-19T11:33:58.889Z,5.60
2018-05-19T11:36:26.449Z,5.80
2018-05-19T11:38:54.157Z,4.80
2018-05-19T11:41:21.856Z,5.68
2018-05-19T11:43:49.385Z,5.00
2018-05-19T11:46:16.889Z,4.70
2018-05-19T11:48:44.418Z,4.90
2018-05-19T11:51:11.939Z,4.60
2018-05-19T11:53:39.486Z,5.90
2018-05-19T11:56:07.008Z,5.00
2018-05-19T11:58:34.544Z,5.12
2018-05-19T12:01:02.199Z,5.20
2018-05-19T12:03:29.739Z,5.07
2018-05-19T12:05:57.633Z,5.60
2018-05-19T12:08:25.241Z,5.68
2018-05-19T12:10:52.690Z,6.05
2018-05-19T12:13:20.189Z,6.35
2018-05-19T12:15:47.729Z,5.45
2018-05-19T12:18:15.233Z,5.47
2018-05-19T12:20:42.757Z,5.37
2018-05-19T12:23:10.257Z,6.07
2018-05-19T12:25:37.986Z,5.93
2018-05-19T12:28:05.491Z,6.32
2018-05-19T12:30:33.025Z,6.15
2018-05-19T12:33:00.521Z,5.70
2018-05-19T12:35:28.054Z,4.87
2018-05-19T12:37:55.656Z,5.62
2018-05-19T12:40:23.309Z,5.47
2018-05-19T12:42:50.822Z,5.72
2018-05-19T12:45:18.357Z,5.78
2018-05-19T12:47:45.858Z,4.60
2018-05-19T12:50:13.437Z,5.72
2018-05-19T12:52:40.941Z,5.70
2018-05-19T12:55:08.456Z,5.30
2018-05-19T12:57:36.183Z,4.87
2018-05-19T13:00:03.671Z,4.60
2018-05-19T13:02:31.332Z,4.50
2018-05-19T13:04:58.861Z,5.00
2018-05-19T13:07:26.442Z,4.80
2018-05-19T13:09:53.985Z,4.90
2018-05-19T13:12:21.490Z,5.25
2018-05-19T13:14:49.031Z,4.55
2018-05-19T13:17:16.529Z,5.60
2018-05-19T13:19:44.458Z,5.53
2018-05-19T13:22:11.961Z,5.68
2018-05-19T13:24:39.513Z,5.82
2018-05-19T13:27:07.009Z,5.45
2018-05-19T13:29:34.568Z,5.37
2018-05-19T13:32:02.105Z,5.25
2018-05-19T13:34:29.613Z,4.65
2018-05-19T13:36:57.529Z,6.55
2018-05-19T13:39:25.081Z,5.15
2018-05-19T13:41:52.610Z,6.03
2018-05-19T13:44:20.105Z,6.40
2018-05-19T13:46:47.718Z,5.80
2018-05-19T13:49:15.182Z,5.03
2018-05-19T13:51:42.708Z,5.90
2018-05-19T13:54:10.216Z,6.10
2018-05-19T13:56:37.759Z,6.45
2018-05-19T13:59:05.526Z,6.10
2018-05-19T14:01:33.048Z,6.10
2018-05-19T14:04:00.549Z,5.82
2018-05-19T14:06:28.068Z,5.97
2018-05-19T14:08:55.966Z,5.95
2018-05-19T14:11:23.493Z,5.87
2018-05-19T14:13:50.999Z,5.57
2018-05-19T14:16:18.546Z,5.12
2018-05-19T14:18:46.053Z,5.75
2018-05-19T14:21:13.577Z,5.25
2018-05-19T14:23:41.191Z,5.30
2018-05-19T14:26:08.727Z,4.80
2018-05-19T14:28:36.273Z,4.45
2018-05-19T14:31:03.813Z,4.32
2018-05-19T14:33:31.309Z,5.35
2018-05-19T14:35:58.833Z,4.68
2018-05-19T14:38:26.350Z,5.12
2018-05-19T14:40:54.195Z,5.95
2018-05-19T14:43:22.057Z,5.53
2018-05-19T14:45:49.590Z,5.78
2018-05-19T14:48:17.373Z,5.43
2018-05-19T14:50:44.908Z,7.15
2018-05-19T14:53:12.529Z,6.10
2018-05-19T14:55:39.984Z,6.22
2018-05-19T14:58:07.493Z,6.85
2018-05-19T15:00:35.005Z,6.65
2018-05-19T15:03:02.537Z,6.22
2018-05-19T15:05:30.050Z,5.87
2018-05-19T15:07:57.581Z,5.87
2018-05-19T15:10:25.079Z,5.47
2018-05-19T15:12:52.620Z,6.03
2018-05-19T15:15:20.192Z,6.15
2018-05-19T15:17:47.856Z,4.90
2018-05-19T15:20:15.373Z,5.70
2018-05-19T15:22:42.916Z,5.55
2018-05-19T15:25:10.614Z,5.47
2018-05-19T15:27:38.165Z,5.45
2018-05-19T15:30:05.730Z,5.10
2018-05-19T15:32:33.258Z,5.20
2018-05-19T15:35:01.157Z,5.22
2018-05-19T15:37:28.693Z,5.30
2018-05-19T15:39:56.202Z,5.07
2018-05-19T15:42:23.819Z,4.82
2018-05-19T15:44:51.327Z,2.00
2018-05-19T15:47:18.882Z,1.75
2018-05-19T15:49:46.441Z,1.48
2018-05-19T15:52:14.042Z,1.55
2018-05-19T15:54:41.545Z,1.20
2018-05-19T15:57:09.090Z,1.60
2018-05-19T15:59:36.621Z,1.30
2018-05-19T16:02:04.177Z,1.65
2018-05-19T16:04:31.681Z,1.75
2018-05-19T16:06:59.225Z,1.77
2018-05-19T16:09:26.831Z,1.58
2018-05-19T16:11:54.376Z,1.67
2018-05-19T16:14:21.881Z,2.20
2018-05-19T16:16:49.460Z,1.73
2018-05-19T16:19:16.930Z,2.05
2018-05-19T16:21:45.028Z,1.73
2018-05-19T16:24:12.672Z,1.90
2018-05-19T16:26:40.214Z,1.77
2018-05-19T16:29:07.717Z,3.20
2018-05-19T16:31:35.241Z,2.87
2018-05-19T16:34:02.793Z,1.65
2018-05-19T16:36:30.305Z,2.20
2018-05-19T16:38:57.853Z,1.80
2018-05-19T16:41:25.354Z,2.00
2018-05-19T16:43:53.033Z,2.08
2018-05-19T16:46:20.538Z,2.33
2018-05-19T16:48:48.070Z,2.08
2018-05-19T16:51:15.580Z,2.08
2018-05-19T16:53:43.123Z,2.70
2018-05-19T16:56:11.020Z,2.55
2018-05-19T16:58:38.575Z,2.25
2018-05-19T17:01:06.076Z,2.37
2018-05-19T17:03:33.618Z,2.67
2018-05-19T17:06:01.118Z,2.80
2018-05-19T17:08:28.801Z,2.78
2018-05-19T17:10:56.326Z,2.90
2018-05-19T17:13:24.255Z,3.10
2018-05-19T17:15:51.762Z,2.87
2018-05-19T17:18:19.301Z,2.87
2018-05-19T17:20:47.201Z,2.67
2018-05-19T17:23:14.754Z,3.22
2018-05-19T17:25:42.269Z,3.30
2018-05-19T17:28:10.276Z,2.70
2018-05-19T17:30:37.717Z,3.12
2018-05-19T17:33:05.290Z,2.95
2018-05-19T17:35:32.801Z,2.30
2018-05-19T17:38:00.350Z,3.55
2018-05-19T17:40:27.858Z,4.00
2018-05-19T17:42:55.397Z,4.60
2018-05-19T17:45:22.897Z,4.78
2018-05-19T17:47:50.444Z,5.87
2018-05-19T17:50:17.950Z,8.32
2018-05-19T17:52:45.635Z,8.18
2018-05-19T17:55:13.169Z,7.25
2018-05-19T17:57:40.751Z,7.00
2018-05-19T18:00:08.285Z,6.62
2018-05-19T18:02:35.790Z,5.37
2018-05-19T18:05:03.333Z,4.97
2018-05-19T18:07:30.859Z,4.32
2018-05-19T18:09:58.428Z,3.17
2018-05-19T18:12:25.931Z,3.97
2018-05-19T18:14:53.502Z,3.37
2018-05-19T18:17:21.110Z,4.20
2018-05-19T18:19:48.641Z,4.12
2018-05-19T18:22:16.150Z,4.28
2018-05-19T18:24:43.765Z,4.43
2018-05-19T18:27:11.269Z,3.72
2018-05-19T18:29:38.910Z,3.78
2018-05-19T18:32:06.738Z,3.42
2018-05-19T18:34:34.394Z,3.60
2018-05-19T18:37:02.053Z,4.53
2018-05-19T18:39:29.577Z,3.92
2018-05-19T18:41:57.480Z,3.67
2018-05-19T18:44:25.038Z,4.72
2018-05-19T18:46:52.542Z,4.15
2018-05-19T18:49:20.134Z,4.72
2018-05-19T18:51:47.724Z,5.05
2018-05-19T18:54:15.181Z,4.87
2018-05-19T18:56:42.681Z,5.00
2018-05-19T18:59:10.217Z,4.65
2018-05-19T19:01:37.820Z,4.50
2018-05-19T19:04:05.350Z,5.37
2018-05-19T19:06:33.261Z,5.10
2018-05-19T19:09:00.789Z,4.10
2018-05-19T19:11:28.306Z,4.30
2018-05-19T19:13:55.831Z,4.50
2018-05-19T19:16:23.369Z,4.97
2018-05-19T19:18:50.913Z,4.72
2018-05-19T19:21:18.465Z,4.97
2018-05-19T19:23:45.936Z,4.40
2018-05-19T19:26:13.468Z,4.82
2018-05-19T19:28:41.364Z,5.10
2018-05-19T19:31:08.892Z,4.70
2018-05-19T19:33:36.393Z,5.45
2018-05-19T19:36:03.930Z,5.43
2018-05-19T19:38:31.487Z,5.50
2018-05-19T19:40:59.024Z,5.50
2018-05-19T19:43:26.527Z,5.37
2018-05-19T19:45:54.083Z,4.93
2018-05-19T19:48:21.585Z,6.22
2018-05-19T19:50:49.118Z,6.50
2018-05-19T19:53:16.625Z,6.13
2018-05-19T19:55:44.261Z,6.57
2018-05-19T19:58:11.775Z,7.20
2018-05-19T20:00:39.370Z,6.60
2018-05-19T20:03:06.873Z,7.25
2018-05-19T20:05:34.497Z,7.43
2018-05-19T20:08:02.014Z,7.75
2018-05-19T20:10:29.937Z,7.77
2018-05-19T20:12:57.440Z,8.00
2018-05-19T20:15:25.116Z,7.57
2018-05-19T20:17:52.617Z,6.82
2018-05-19T20:20:20.216Z,8.13
2018-05-19T20:22:48.737Z,7.03
2018-05-19T20:25:16.277Z,7.00
2018-05-19T20:27:43.777Z,7.78
2018-05-19T20:30:11.310Z,7.43
2018-05-19T20:32:38.821Z,8.98
2018-05-19T20:35:06.349Z,7.60
2018-05-19T20:37:33.995Z,8.38
2018-05-19T20:40:01.570Z,8.93
2018-05-19T20:42:29.603Z,7.80
2018-05-19T20:44:57.136Z,8.88
2018-05-19T20:47:24.647Z,7.85
2018-05-19T20:49:52.149Z,8.40
2018-05-19T20:52:19.692Z,8.40
2018-05-19T20:54:47.373Z,10.15
2018-05-19T20:57:14.910Z,8.23
2018-05-19T20:59:42.422Z,9.73
2018-05-19T21:02:09.969Z,8.27
2018-05-19T21:04:37.473Z,9.40
2018-05-19T21:07:05.020Z,9.77
2018-05-19T21:09:32.603Z,9.60
2018-05-19T21:12:00.137Z,9.77
2018-05-19T21:14:27.707Z,9.68
2018-05-19T21:16:55.240Z,9.95
2018-05-19T21:19:23.252Z,9.45
2018-05-19T21:21:50.807Z,10.38
2018-05-19T21:24:18.308Z,9.98
2018-05-19T21:26:45.852Z,9.90
2018-05-19T21:29:13.352Z,9.13
2018-05-19T21:31:40.889Z,10.75
2018-05-19T21:34:08.397Z,10.40
2018-05-19T21:36:36.025Z,10.68
2018-05-19T21:39:03.543Z,10.20
2018-05-19T21:41:31.589Z,11.18
2018-05-19T21:43:59.208Z,10.48
2018-05-19T21:46:26.738Z,12.70
2018-05-19T21:48:54.848Z,12.25
2018-05-19T21:51:22.387Z,11.60
2018-05-19T21:53:49.888Z,10.77
2018-05-19T21:56:17.549Z,11.57
2018-05-19T21:58:45.069Z,13.10
2018-05-19T22:01:12.604Z,13.52
2018-05-19T22:03:40.256Z,12.87
2018-05-19T22:06:07.794Z,11.95
2018-05-19T22:08:35.799Z,13.30
2018-05-19T22:11:03.327Z,11.60
2018-05-19T22:13:30.825Z,12.20
2018-05-19T22:15:58.364Z,12.52
2018-05-19T22:18:25.902Z,12.20
2018-05-19T22:20:53.406Z,11.98
2018-05-19T22:23:20.949Z,11.63
2018-05-19T22:25:48.457Z,11.73
2018-05-19T22:28:16.389Z,12.13
2018-05-19T22:30:43.915Z,12.07
2018-05-19T22:33:11.545Z,12.17
2018-05-19T22:35:39.058Z,11.98
2018-05-19T22:38:06.598Z,12.40
2018-05-19T22:40:34.112Z,10.90
2018-05-19T22:43:01.652Z,11.02
2018-05-19T22:45:29.651Z,11.77
2018-05-19T22:47:57.188Z,11.48
2018-05-19T22:50:24.746Z,12.07
2018-05-19T22:52:52.272Z,12.27
2018-05-19T22:55:19.789Z,11.60
2018-05-19T22:57:47.331Z,11.23
2018-05-19T23:00:19.756Z,13.38
2018-05-19T23:02:47.289Z,12.32
2018-05-19T23:05:14.794Z,12.20
2018-05-19T23:07:42.466Z,12.70
2018-05-19T23:10:09.965Z,13.13
2018-05-19T23:12:37.513Z,12.52
2018-05-19T23:15:05.021Z,12.63
2018-05-19T23:17:32.561Z,13.80
2018-05-19T23:20:00.568Z,14.10
2018-05-19T23:22:39.926Z,12.57
2018-05-19T23:25:07.432Z,12.88
2018-05-19T23:27:34.972Z,13.68
2018-05-19T23:30:02.479Z,12.95
2018-05-19T23:32:30.015Z,13.88
2018-05-19T23:34:57.524Z,13.48
2018-05-19T23:37:25.073Z,14.13
2018-05-19T23:39:52.588Z,12.48
2018-05-19T23:42:20.328Z,14.50
2018-05-19T23:44:47.836Z,13.68
2018-05-19T23:47:15.455Z,13.80
2018-05-19T23:49:42.962Z,14.25
2018-05-19T23:52:10.465Z,14.57
2018-05-19T23:54:38.016Z,12.63
2018-05-19T23:57:05.684Z,12.82
2018-05-19T23:59:33.250Z,12.05
